createdAt,value
2018-10-02T00:00:24.923Z,101642.80
2018-10-02T00:02:54.165Z,101638.95
2018-10-02T00:05:23.348Z,101634.56
2018-10-02T00:07:52.593Z,101632.56
2018-10-02T00:10:21.794Z,101631.74
2018-10-02T00:12:56.193Z,101624.13
2018-10-02T00:15:25.381Z,101619.78
2018-10-02T00:17:54.594Z,101625.83
2018-10-02T00:20:23.932Z,101622.32
2018-10-02T00:22:53.128Z,101623.89
2018-10-02T00:25:22.270Z,101620.23
2018-10-02T00:27:51.482Z,101614.59
2018-10-02T00:30:21.721Z,101622.98
2018-10-02T00:32:50.859Z,101617.27
2018-10-02T00:35:19.948Z,101611.62
2018-10-02T00:37:49.211Z,101616.97
2018-10-02T00:40:18.343Z,101620.16
2018-10-02T00:42:47.641Z,101617.53
2018-10-02T00:45:16.807Z,101624.58
2018-10-02T00:47:45.910Z,101622.73
2018-10-02T00:50:15.833Z,101611.09
2018-10-02T00:52:44.984Z,101611.94
2018-10-02T00:55:14.104Z,101605.76
2018-10-02T00:57:43.213Z,101607.80
2018-10-02T01:00:12.371Z,101612.65
2018-10-02T01:02:41.664Z,101611.83
2018-10-02T01:05:11.219Z,101614.66
2018-10-02T01:07:44.085Z,101615.84
2018-10-02T01:10:13.280Z,101612.39
2018-10-02T01:12:42.474Z,101614.25
2018-10-02T01:15:11.766Z,101609.76
2018-10-02T01:17:40.953Z,101610.24
2018-10-02T01:20:10.592Z,101597.61
2018-10-02T01:22:39.792Z,101601.27
2018-10-02T01:25:09.002Z,101586.13
2018-10-02T01:27:38.204Z,101588.27
2018-10-02T01:30:07.614Z,101589.27
2018-10-02T01:32:36.805Z,101591.12
2018-10-02T01:35:06.126Z,101593.31
2018-10-02T01:37:35.347Z,101586.27
2018-10-02T01:40:04.544Z,101583.94
2018-10-02T01:42:33.789Z,101580.27
2018-10-02T01:45:03.093Z,101571.27
2018-10-02T01:47:32.567Z,101576.45
2018-10-02T01:50:01.823Z,101566.78
2018-10-02T01:52:31.036Z,101554.59
2018-10-02T01:55:00.172Z,101543.41
2018-10-02T01:57:29.379Z,101544.89
2018-10-02T01:59:58.613Z,101550.55
2018-10-02T02:02:27.954Z,101542.92
2018-10-02T02:04:57.200Z,101537.91
2018-10-02T02:07:26.433Z,101536.58
2018-10-02T02:09:55.644Z,101531.20
2018-10-02T02:12:24.856Z,101537.03
2018-10-02T02:14:54.141Z,101536.54
2018-10-02T02:17:23.290Z,101542.98
2018-10-02T02:19:52.544Z,101538.16
2018-10-02T02:22:21.741Z,101538.80
2018-10-02T02:24:50.912Z,101533.83
2018-10-02T02:27:20.125Z,101534.80
2018-10-02T02:29:49.799Z,101523.45
2018-10-02T02:32:19.105Z,101514.83
2018-10-02T02:34:48.337Z,101514.45
2018-10-02T02:37:17.630Z,101509.26
2018-10-02T02:39:46.844Z,101501.25
2018-10-02T02:42:16.249Z,101491.38
2018-10-02T02:44:45.442Z,101496.67
2018-10-02T02:47:19.976Z,101495.72
2018-10-02T02:49:54.396Z,101493.67
2018-10-02T02:52:25.249Z,101494.86
2018-10-02T02:54:54.400Z,101495.00
2018-10-02T02:57:23.551Z,101489.66
2018-10-02T02:59:52.680Z,101492.91
2018-10-02T03:02:21.901Z,101486.61
2018-10-02T03:04:51.102Z,101494.05
2018-10-02T03:07:20.303Z,101489.89
2018-10-02T03:09:49.711Z,101500.84
2018-10-02T03:12:18.904Z,101489.38
2018-10-02T03:14:48.139Z,101494.17
2018-10-02T03:17:17.298Z,101488.64
2018-10-02T03:19:46.616Z,101486.06
2018-10-02T03:22:16.886Z,101499.55
2018-10-02T03:24:46.207Z,101498.27
2018-10-02T03:27:15.493Z,101494.73
2018-10-02T03:29:44.712Z,101490.40
2018-10-02T03:32:13.936Z,101488.30
2018-10-02T03:34:43.162Z,101485.14
2018-10-02T03:37:12.355Z,101467.96
2018-10-02T03:39:41.595Z,101472.64
2018-10-02T03:42:10.763Z,101463.95
2018-10-02T03:44:39.928Z,101456.63
2018-10-02T03:47:09.097Z,101454.28
2018-10-02T03:49:38.319Z,101442.73
2018-10-02T03:52:07.571Z,101435.53
2018-10-02T03:54:36.734Z,101426.52
2018-10-02T03:57:06.467Z,101421.36
2018-10-02T03:59:35.653Z,101425.50
2018-10-02T04:02:04.957Z,101429.59
2018-10-02T04:04:34.131Z,101425.25
2018-10-02T04:07:03.325Z,101432.94
2018-10-02T04:09:32.548Z,101431.93
2018-10-02T04:12:01.755Z,101436.65
2018-10-02T04:14:31.049Z,101433.78
2018-10-02T04:17:00.245Z,101430.73
2018-10-02T04:19:29.503Z,101433.73
2018-10-02T04:21:58.725Z,101426.37
2018-10-02T04:24:27.977Z,101425.03
2018-10-02T04:26:57.122Z,101430.53
2018-10-02T04:29:26.956Z,101422.17
2018-10-02T04:31:56.230Z,101420.64
2018-10-02T04:34:25.361Z,101416.96
2018-10-02T04:36:54.589Z,101417.25
2018-10-02T04:39:23.901Z,101426.31
2018-10-02T04:41:53.029Z,101421.39
2018-10-02T04:44:22.227Z,101421.72
2018-10-02T04:46:51.489Z,101416.51
2018-10-02T04:49:20.702Z,101417.36
2018-10-02T04:51:49.945Z,101425.17
2018-10-02T04:54:19.259Z,101414.98
2018-10-02T04:56:48.547Z,101427.13
2018-10-02T04:59:17.944Z,101429.45
2018-10-02T05:01:47.155Z,101422.77
2018-10-02T05:04:16.354Z,101410.88
2018-10-02T05:06:45.618Z,101414.56
2018-10-02T05:09:14.804Z,101415.08
2018-10-02T05:11:43.982Z,101413.55
2018-10-02T05:14:13.254Z,101413.68
2018-10-02T05:16:42.390Z,101412.54
2018-10-02T05:19:11.580Z,101401.66
2018-10-02T05:21:40.858Z,101406.16
2018-10-02T05:24:10.100Z,101402.66
2018-10-02T05:26:39.335Z,101415.70
2018-10-02T05:29:08.555Z,101422.05
2018-10-02T05:31:37.810Z,101414.17
2018-10-02T05:34:07.188Z,101399.34
2018-10-02T05:36:36.413Z,101394.72
2018-10-02T05:39:07.451Z,101402.73
2018-10-02T05:41:36.664Z,101400.06
2018-10-02T05:44:05.862Z,101398.01
2018-10-02T05:46:35.090Z,101397.84
2018-10-02T05:49:04.289Z,101395.05
2018-10-02T05:51:33.474Z,101399.34
2018-10-02T05:54:02.786Z,101396.67
2018-10-02T05:56:31.968Z,101393.19
2018-10-02T05:59:01.186Z,101389.70
2018-10-02T06:01:30.457Z,101396.67
2018-10-02T06:03:59.623Z,101409.02
2018-10-02T06:06:28.831Z,101410.16
2018-10-02T06:08:58.827Z,101402.14
2018-10-02T06:11:28.157Z,101393.64
2018-10-02T06:13:57.288Z,101379.27
2018-10-02T06:16:26.566Z,101381.42
2018-10-02T06:18:56.079Z,101385.75
2018-10-02T06:21:25.288Z,101386.05
2018-10-02T06:23:54.591Z,101372.88
2018-10-02T06:26:23.833Z,101366.78
2018-10-02T06:28:53.032Z,101357.36
2018-10-02T06:31:22.210Z,101361.56
2018-10-02T06:33:51.560Z,101365.05
2018-10-02T06:36:21.705Z,101361.24
2018-10-02T06:38:51.985Z,101356.02
2018-10-02T06:41:21.257Z,101356.67
2018-10-02T06:43:50.566Z,101360.28
2018-10-02T06:46:19.728Z,101356.60
2018-10-02T06:48:48.980Z,101351.51
2018-10-02T06:51:18.228Z,101331.14
2018-10-02T06:53:47.767Z,101335.99
2018-10-02T06:56:16.932Z,101322.63
2018-10-02T06:58:46.529Z,101315.35
2018-10-02T07:01:15.702Z,101310.94
2018-10-02T07:03:44.882Z,101304.05
2018-10-02T07:06:14.071Z,101294.53
2018-10-02T07:08:43.339Z,101286.84
2018-10-02T07:11:12.371Z,101285.91
2018-10-02T07:13:41.540Z,101283.52
2018-10-02T07:16:10.714Z,101273.06
2018-10-02T07:18:39.875Z,101261.14
2018-10-02T07:21:09.045Z,101266.20
2018-10-02T07:23:38.259Z,101251.91
2018-10-02T07:26:07.545Z,101248.62
2018-10-02T07:28:37.276Z,101235.45
2018-10-02T07:31:07.288Z,101233.59
2018-10-02T07:33:36.443Z,101231.35
2018-10-02T07:36:05.596Z,101228.16
2018-10-02T07:38:34.815Z,101226.35
2018-10-02T07:41:04.020Z,101228.30
2018-10-02T07:43:33.206Z,101212.25
2018-10-02T07:46:02.381Z,101205.79
2018-10-02T07:48:31.548Z,101201.69
2018-10-02T07:51:00.766Z,101199.65
2018-10-02T07:53:30.983Z,101190.61
2018-10-02T07:56:00.138Z,101190.70
2018-10-02T07:58:29.346Z,101194.50
2018-10-02T08:00:58.516Z,101181.56
2018-10-02T08:03:27.668Z,101174.87
2018-10-02T08:05:56.868Z,101165.80
2018-10-02T08:08:25.985Z,101157.48
2018-10-02T08:10:55.137Z,101156.03
2018-10-02T08:13:24.566Z,101159.33
2018-10-02T08:15:53.720Z,101160.27
2018-10-02T08:18:22.870Z,101157.49
2018-10-02T08:20:52.085Z,101143.27
2018-10-02T08:23:21.273Z,101135.78
2018-10-02T08:25:51.216Z,101133.62
2018-10-02T08:28:21.587Z,101132.30
2018-10-02T08:30:51.369Z,101125.08
2018-10-02T08:33:20.493Z,101131.98
2018-10-02T08:35:49.704Z,101120.47
2018-10-02T08:38:19.855Z,101114.80
2018-10-02T08:40:49.130Z,101115.01
2018-10-02T08:43:18.422Z,101110.99
2018-10-02T08:45:47.555Z,101121.28
2018-10-02T08:48:16.688Z,101103.98
2018-10-02T08:50:45.811Z,101107.80
2018-10-02T08:53:15.128Z,101106.25
2018-10-02T08:55:44.284Z,101106.77
2018-10-02T08:58:13.407Z,101107.27
2018-10-02T09:00:42.571Z,101107.09
2018-10-02T09:03:11.739Z,101105.22
2018-10-02T09:05:40.839Z,101108.92
2018-10-02T09:08:10.083Z,101100.69
2018-10-02T09:10:39.338Z,101108.33
2018-10-02T09:13:08.588Z,101101.22
2018-10-02T09:15:37.909Z,101109.24
2018-10-02T09:18:07.125Z,101095.97
2018-10-02T09:20:36.454Z,101090.12
2018-10-02T09:23:05.700Z,101082.58
2018-10-02T09:25:34.883Z,101081.56
2018-10-02T09:28:04.140Z,101074.06
2018-10-02T09:30:38.672Z,101077.02
2018-10-02T09:33:13.490Z,101060.56
2018-10-02T09:35:47.874Z,101057.26
2018-10-02T09:38:22.266Z,101049.03
2018-10-02T09:40:56.642Z,101043.05
2018-10-02T09:43:59.139Z,101050.56
2018-10-02T09:46:29.073Z,101046.95
2018-10-02T09:48:58.410Z,101041.20
2018-10-02T09:51:28.547Z,101035.44
2018-10-02T09:53:57.753Z,101043.57
2018-10-02T09:56:31.172Z,101040.78
2018-10-02T09:59:00.368Z,101036.97
2018-10-02T10:01:34.750Z,101028.94
2018-10-02T10:04:04.005Z,101027.28
2018-10-02T10:06:33.264Z,101019.77
2018-10-02T10:09:02.510Z,101022.23
2018-10-02T10:11:31.754Z,101022.23
2018-10-02T10:14:00.957Z,101021.09
2018-10-02T10:16:30.344Z,101020.16
2018-10-02T10:18:59.516Z,101005.03
2018-10-02T10:21:28.673Z,100997.70
2018-10-02T10:23:57.884Z,100995.88
2018-10-02T10:26:27.119Z,101001.20
2018-10-02T10:28:56.327Z,101000.58
2018-10-02T10:31:25.586Z,100989.47
2018-10-02T10:33:54.794Z,100993.05
2018-10-02T10:36:23.979Z,100986.36
2018-10-02T10:38:53.165Z,100981.81
2018-10-02T10:41:22.365Z,100975.52
2018-10-02T10:43:51.591Z,100957.49
2018-10-02T10:46:20.841Z,100954.28
2018-10-02T10:48:50.092Z,100959.95
2018-10-02T10:51:19.323Z,100948.21
2018-10-02T10:53:48.652Z,100949.02
2018-10-02T10:56:17.912Z,100953.13
2018-10-02T10:58:47.172Z,100944.07
2018-10-02T11:01:16.377Z,100940.95
2018-10-02T11:03:45.576Z,100943.81
2018-10-02T11:06:14.793Z,100940.11
2018-10-02T11:08:44.060Z,100924.03
2018-10-02T11:11:13.346Z,100917.11
2018-10-02T11:13:42.715Z,100917.42
2018-10-02T11:16:11.972Z,100909.16
2018-10-02T11:18:41.105Z,100911.72
2018-10-02T11:21:10.348Z,100902.02
2018-10-02T11:23:39.829Z,100908.31
2018-10-02T11:26:09.940Z,100897.16
2018-10-02T11:28:39.177Z,100901.66
2018-10-02T11:31:08.669Z,100891.47
2018-10-02T11:33:37.932Z,100902.28
2018-10-02T11:36:07.101Z,100900.41
2018-10-02T11:38:36.764Z,100901.65
2018-10-02T11:41:06.166Z,100906.56
2018-10-02T11:43:35.361Z,100903.08
2018-10-02T11:46:04.585Z,100895.43
2018-10-02T11:48:33.774Z,100897.97
2018-10-02T11:51:03.032Z,100902.80
2018-10-02T11:53:32.173Z,100902.08
2018-10-02T11:56:01.431Z,100882.14
2018-10-02T11:58:30.840Z,100879.23
2018-10-02T12:01:00.215Z,100888.48
2018-10-02T12:03:29.362Z,100884.13
2018-10-02T12:05:58.730Z,100894.24
2018-10-02T12:08:27.959Z,100893.52
2018-10-02T12:10:57.101Z,100884.72
2018-10-02T12:13:26.370Z,100881.89
2018-10-02T12:15:55.517Z,100881.08
2018-10-02T12:18:24.700Z,100878.48
2018-10-02T12:20:54.079Z,100885.19
2018-10-02T12:23:23.254Z,100882.37
2018-10-02T12:25:52.440Z,100879.54
2018-10-02T12:28:21.536Z,100871.80
2018-10-02T12:30:50.689Z,100861.69
2018-10-02T12:33:19.905Z,100855.05
2018-10-02T12:35:49.048Z,100849.55
2018-10-02T12:38:18.213Z,100854.69
2018-10-02T12:40:47.372Z,100837.25
2018-10-02T12:43:16.544Z,100847.61
2018-10-02T12:45:45.697Z,100841.28
2018-10-02T12:48:14.800Z,100834.30
2018-10-02T12:50:44.947Z,100834.45
2018-10-02T12:53:14.070Z,100841.59
2018-10-02T12:55:43.189Z,100841.73
2018-10-02T12:58:12.385Z,100837.86
2018-10-02T13:00:41.604Z,100843.83
2018-10-02T13:03:10.792Z,100845.24
2018-10-02T13:05:39.980Z,100837.10
2018-10-02T13:08:09.212Z,100835.44
2018-10-02T13:10:38.399Z,100830.64
2018-10-02T13:13:07.916Z,100830.41
2018-10-02T13:15:37.106Z,100832.43
2018-10-02T13:18:06.296Z,100826.22
2018-10-02T13:20:35.646Z,100820.11
2018-10-02T13:23:04.848Z,100823.60
2018-10-02T13:25:34.058Z,100821.82
2018-10-02T13:28:03.214Z,100811.14
2018-10-02T13:30:32.410Z,100821.79
2018-10-02T13:33:01.659Z,100809.16
2018-10-02T13:35:30.912Z,100794.51
2018-10-02T13:38:00.281Z,100811.00
2018-10-02T13:40:29.568Z,100802.47
2018-10-02T13:42:58.734Z,100809.48
2018-10-02T13:45:27.972Z,100814.13
2018-10-02T13:47:57.116Z,100798.80
2018-10-02T13:50:26.246Z,100809.55
2018-10-02T13:52:55.480Z,100816.64
2018-10-02T13:55:24.677Z,100815.23
2018-10-02T13:57:53.843Z,100805.02
2018-10-02T14:00:23.040Z,100801.55
2018-10-02T14:02:52.244Z,100796.80
2018-10-02T14:05:21.373Z,100794.69
2018-10-02T14:07:50.535Z,100801.47
2018-10-02T14:10:19.716Z,100806.17
2018-10-02T14:12:48.843Z,100810.50
2018-10-02T14:15:17.989Z,100814.53
2018-10-02T14:17:47.161Z,100813.47
2018-10-02T14:20:16.296Z,100808.69
2018-10-02T14:22:45.450Z,100809.42
2018-10-02T14:25:14.808Z,100809.73
2018-10-02T14:27:43.977Z,100812.48
2018-10-02T14:30:13.144Z,100810.63
2018-10-02T14:32:42.581Z,100818.91
2018-10-02T14:35:11.698Z,100820.84
2018-10-02T14:37:40.854Z,100831.07
2018-10-02T14:40:10.078Z,100834.66
2018-10-02T14:42:39.266Z,100863.47
2018-10-02T14:45:08.498Z,100853.67
2018-10-02T14:47:37.852Z,100861.20
2018-10-02T14:50:07.012Z,100882.11
2018-10-02T14:52:36.157Z,100890.41
2018-10-02T14:55:05.349Z,100889.84
2018-10-02T14:57:34.443Z,100878.66
2018-10-02T15:00:03.811Z,100888.55
2018-10-02T15:02:32.983Z,100897.50
2018-10-02T15:05:02.148Z,100896.39
2018-10-02T15:07:31.285Z,100894.50
2018-10-02T15:10:00.522Z,100890.09
2018-10-02T15:12:29.656Z,100891.44
2018-10-02T15:14:58.819Z,100883.72
2018-10-02T15:17:27.946Z,100889.67
2018-10-02T15:19:57.069Z,100881.95
2018-10-02T15:22:26.316Z,100889.86
2018-10-02T15:24:55.472Z,100891.50
2018-10-02T15:27:24.628Z,100891.80
2018-10-02T15:34:54.254Z,100896.17
2018-10-02T15:37:23.599Z,100894.88
2018-10-02T15:39:52.815Z,100899.88
2018-10-02T15:42:22.072Z,100890.70
2018-10-02T15:44:51.324Z,100894.44
2018-10-02T15:47:20.453Z,100896.20
2018-10-02T15:49:49.678Z,100898.83
2018-10-02T15:52:18.860Z,100900.39
2018-10-02T15:54:48.099Z,100900.63
2018-10-02T15:57:17.237Z,100912.23
2018-10-02T15:59:47.020Z,100905.56
2018-10-02T16:02:16.215Z,100907.23
2018-10-02T16:04:45.420Z,100909.06
2018-10-02T16:07:14.628Z,100901.80
2018-10-02T16:09:43.780Z,100912.80
2018-10-02T16:12:12.921Z,100911.45
2018-10-02T16:14:42.031Z,100915.49
2018-10-02T16:17:11.344Z,100910.89
2018-10-02T16:19:40.500Z,100908.25
2018-10-02T16:22:09.717Z,100920.43
2018-10-02T16:24:38.824Z,100922.05
2018-10-02T16:27:07.979Z,100929.31
2018-10-02T16:29:37.641Z,100933.89
2018-10-02T16:32:07.007Z,100940.08
2018-10-02T16:34:48.978Z,100937.63
2018-10-02T16:37:05.332Z,100935.92
2018-10-02T16:39:34.494Z,100949.08
2018-10-02T16:42:03.818Z,100950.37
2018-10-02T16:44:33.056Z,100943.34
2018-10-02T16:47:02.226Z,100953.30
2018-10-02T16:49:31.464Z,100956.41
2018-10-02T16:52:00.772Z,100952.54
2018-10-02T16:54:30.228Z,100959.71
2018-10-02T16:56:59.606Z,100964.22
2018-10-02T16:59:28.848Z,100973.41
2018-10-02T17:01:58.112Z,100974.52
2018-10-02T17:04:30.672Z,100977.07
2018-10-02T17:07:00.337Z,100979.94
2018-10-02T17:09:29.738Z,100991.13
2018-10-02T17:12:01.972Z,100991.51
2018-10-02T17:14:31.355Z,100995.10
2018-10-02T17:17:00.473Z,100998.91
2018-10-02T17:19:29.652Z,101002.64
2018-10-02T17:21:58.921Z,101008.19
2018-10-02T17:24:28.043Z,101013.88
2018-10-02T17:26:57.313Z,101012.97
2018-10-02T17:29:26.421Z,101002.97
2018-10-02T17:31:55.512Z,101011.05
2018-10-02T17:34:24.645Z,101009.09
2018-10-02T17:41:57.299Z,101008.89
2018-10-02T17:44:26.561Z,101011.01
2018-10-02T17:46:55.815Z,101016.02
2018-10-02T17:49:25.072Z,101016.32
2018-10-02T17:51:54.310Z,101013.80
2018-10-02T17:54:23.611Z,101011.54
2018-10-02T17:56:52.692Z,101018.50
2018-10-02T17:59:21.919Z,101012.47
2018-10-02T18:01:51.028Z,101017.55
2018-10-02T18:04:20.155Z,101013.95
2018-10-02T18:06:49.453Z,101018.14
2018-10-02T18:09:18.674Z,101027.63
2018-10-02T18:11:47.841Z,101027.19
2018-10-02T18:14:16.962Z,101034.12
2018-10-02T18:16:46.121Z,101032.77
2018-10-02T18:19:15.297Z,101028.66
2018-10-02T18:21:44.536Z,101032.27
2018-10-02T18:24:13.695Z,101029.34
2018-10-02T18:26:42.853Z,101032.17
2018-10-02T18:29:11.987Z,101032.17
2018-10-02T18:31:41.165Z,101043.67
2018-10-02T18:34:10.309Z,101041.68
2018-10-02T18:36:39.444Z,101036.87
2018-10-02T18:39:09.093Z,101044.14
2018-10-02T18:41:38.291Z,101038.30
2018-10-02T18:44:07.873Z,101045.18
2018-10-02T18:46:37.404Z,101047.72
2018-10-02T18:49:06.623Z,101052.30
2018-10-02T18:51:35.776Z,101048.56
2018-10-02T18:54:04.981Z,101044.60
2018-10-02T18:56:34.222Z,101040.56
2018-10-02T18:59:03.338Z,101038.92
2018-10-02T19:01:32.552Z,101042.11
2018-10-02T19:04:01.733Z,101041.00
2018-10-02T19:06:30.903Z,101045.64
2018-10-02T19:09:05.421Z,101039.95
2018-10-02T19:11:39.739Z,101042.42
2018-10-02T19:14:08.966Z,101043.99
2018-10-02T19:16:38.083Z,101034.35
2018-10-02T19:19:11.468Z,101026.59
2018-10-02T19:21:40.701Z,101026.20
2018-10-02T19:24:09.837Z,101019.34
2018-10-02T19:26:39.157Z,101020.11
2018-10-02T19:29:08.409Z,101014.73
2018-10-02T19:31:42.996Z,101021.48
2018-10-02T19:34:12.424Z,101017.53
2018-10-02T19:36:41.561Z,101010.97
2018-10-02T19:39:14.170Z,101020.67
2018-10-02T19:41:43.347Z,101023.36
2018-10-02T19:44:12.494Z,101036.58
2018-10-02T19:46:49.425Z,101029.05
2018-10-02T19:49:19.851Z,101037.92
2018-10-02T19:51:54.368Z,101036.34
2018-10-02T19:54:24.679Z,101042.87
2018-10-02T19:56:54.013Z,101042.03
2018-10-02T19:59:24.339Z,101053.55
2018-10-02T20:01:53.789Z,101051.89
2018-10-02T20:04:23.007Z,101055.86
2018-10-02T20:06:52.322Z,101051.52
2018-10-02T20:09:21.488Z,101056.01
2018-10-02T20:11:50.704Z,101055.31
2018-10-02T20:14:19.915Z,101060.12
2018-10-02T20:16:50.094Z,101056.97
2018-10-02T20:19:19.351Z,101042.33
2018-10-02T20:21:48.644Z,101051.81
2018-10-02T20:24:17.821Z,101060.92
2018-10-02T20:26:47.067Z,101063.23
2018-10-02T20:29:16.337Z,101069.75
2018-10-02T20:31:48.249Z,101067.34
2018-10-02T20:34:17.349Z,101066.07
2018-10-02T20:36:46.471Z,101067.27
2018-10-02T20:39:15.608Z,101063.84
2018-10-02T20:41:44.793Z,101066.07
2018-10-02T20:44:14.009Z,101075.40
2018-10-02T20:46:43.213Z,101072.94
2018-10-02T20:49:12.455Z,101088.45
2018-10-02T20:51:41.528Z,101089.52
2018-10-02T20:54:10.635Z,101076.97
2018-10-02T20:56:39.761Z,101085.34
2018-10-02T20:59:08.965Z,101084.58
2018-10-02T21:01:38.094Z,101091.92
2018-10-02T21:04:07.347Z,101096.25
2018-10-02T21:06:36.473Z,101085.27
2018-10-02T21:09:07.188Z,101077.74
2018-10-02T21:11:36.352Z,101087.34
2018-10-02T21:14:05.485Z,101091.61
2018-10-02T21:16:34.707Z,101084.89
2018-10-02T21:19:03.844Z,101092.64
2018-10-02T21:21:33.027Z,101090.11
2018-10-02T21:24:02.174Z,101079.51
2018-10-02T21:26:31.259Z,101079.05
2018-10-02T21:29:00.447Z,101086.07
2018-10-02T21:31:29.644Z,101087.03
2018-10-02T21:33:58.757Z,101082.34
2018-10-02T21:36:27.892Z,101082.59
2018-10-02T21:38:57.049Z,101075.80
2018-10-02T21:41:26.197Z,101080.98
2018-10-02T21:43:55.361Z,101075.77
2018-10-02T21:46:24.529Z,101085.02
2018-10-02T21:48:53.649Z,101087.09
2018-10-02T21:51:22.869Z,101091.89
2018-10-02T21:53:52.044Z,101085.66
2018-10-02T21:56:21.158Z,101084.46
2018-10-02T21:58:50.364Z,101085.66
2018-10-02T22:01:19.562Z,101081.13
2018-10-02T22:03:48.876Z,101072.31
2018-10-02T22:06:18.146Z,101066.85
2018-10-02T22:08:47.272Z,101081.77
2018-10-02T22:11:16.449Z,101083.12
2018-10-02T22:13:45.747Z,101079.62
2018-10-02T22:16:14.942Z,101088.78
2018-10-02T22:18:44.040Z,101089.14
2018-10-02T22:21:13.182Z,101098.54
2018-10-02T22:23:42.280Z,101092.27
2018-10-02T22:26:11.448Z,101098.02
2018-10-02T22:28:40.582Z,101107.25
2018-10-02T22:31:09.761Z,101110.52
2018-10-02T22:33:38.919Z,101110.19
2018-10-02T22:36:08.035Z,101106.73
2018-10-02T22:38:37.183Z,101105.48
2018-10-02T22:41:06.374Z,101116.23
2018-10-02T22:43:35.527Z,101118.83
2018-10-02T22:46:04.691Z,101117.94
2018-10-02T22:48:33.862Z,101124.34
2018-10-02T22:51:02.959Z,101115.25
2018-10-02T22:53:32.593Z,101129.27
2018-10-02T22:56:01.745Z,101128.09
2018-10-02T22:58:30.891Z,101128.40
2018-10-02T23:00:59.973Z,101127.36
2018-10-02T23:03:29.082Z,101132.01
2018-10-02T23:05:58.191Z,101128.56
2018-10-02T23:08:27.339Z,101137.23
2018-10-02T23:10:56.523Z,101147.38
2018-10-02T23:13:25.650Z,101135.89
2018-10-02T23:15:54.808Z,101136.39
2018-10-02T23:18:23.950Z,101121.54
2018-10-02T23:20:53.055Z,101138.11
2018-10-02T23:23:22.250Z,101138.41
2018-10-02T23:25:51.382Z,101141.52
2018-10-02T23:28:20.620Z,101129.32
2018-10-02T23:30:49.840Z,101137.22
2018-10-02T23:33:19.058Z,101131.53
2018-10-02T23:35:48.204Z,101138.50
2018-10-02T23:38:17.409Z,101138.27
2018-10-02T23:40:46.500Z,101145.40
2018-10-02T23:43:15.656Z,101150.18
2018-10-02T23:45:44.793Z,101151.54
2018-10-02T23:48:13.938Z,101140.12
2018-10-02T23:50:43.185Z,101149.88
2018-10-02T23:53:12.332Z,101147.61
2018-10-02T23:55:41.493Z,101148.36
2018-10-02T23:58:10.649Z,101142.72
